createdAt,value
2017-12-28T00:00:44.886Z,97817.38
2017-12-28T00:03:17.429Z,97819.99
2017-12-28T00:05:49.935Z,97817.72
2017-12-28T00:08:22.424Z,97814.28
2017-12-28T00:10:54.962Z,97821.66
2017-12-28T00:13:27.459Z,97826.72
2017-12-28T00:16:00.001Z,97826.81
2017-12-28T00:18:33.213Z,97821.91
2017-12-28T00:21:05.708Z,97822.61
2017-12-28T00:23:38.185Z,97820.35
2017-12-28T00:26:10.679Z,97825.18
2017-12-28T00:28:43.173Z,97823.91
2017-12-28T00:31:15.675Z,97826.42
2017-12-28T00:33:48.158Z,97833.89
2017-12-28T00:36:20.666Z,97828.83
2017-12-28T00:38:53.143Z,97835.52
2017-12-28T00:41:25.647Z,97838.00
2017-12-28T00:43:58.136Z,97830.83
2017-12-28T00:46:31.203Z,97840.25
2017-12-28T00:49:03.702Z,97840.12
2017-12-28T00:51:36.196Z,97838.00
2017-12-28T00:54:08.747Z,97835.02
2017-12-28T00:56:41.248Z,97844.86
2017-12-28T00:59:13.730Z,97838.83
2017-12-28T01:01:46.236Z,97831.48
2017-12-28T01:04:18.716Z,97837.07
2017-12-28T01:06:51.212Z,97843.06
2017-12-28T01:09:23.692Z,97841.06
2017-12-28T01:11:56.185Z,97838.02
2017-12-28T01:14:28.669Z,97842.50
2017-12-28T01:17:01.515Z,97839.40
2017-12-28T01:19:34.027Z,97837.40
2017-12-28T01:22:06.567Z,97837.52
2017-12-28T01:24:39.044Z,97835.68
2017-12-28T01:27:11.523Z,97838.09
2017-12-28T01:29:44.023Z,97840.04
2017-12-28T01:32:16.516Z,97835.27
2017-12-28T01:34:49.006Z,97835.60
2017-12-28T01:37:21.482Z,97830.37
2017-12-28T01:39:54.041Z,97843.55
2017-12-28T01:42:26.531Z,97839.72
2017-12-28T01:44:59.029Z,97840.58
2017-12-28T01:47:31.527Z,97840.41
2017-12-28T01:50:04.037Z,97847.39
2017-12-28T01:52:36.520Z,97847.27
2017-12-28T01:55:09.034Z,97854.20
2017-12-28T01:57:41.516Z,97852.86
2017-12-28T02:00:14.176Z,97857.38
2017-12-28T02:02:46.665Z,97857.50
2017-12-28T02:05:19.193Z,97859.42
2017-12-28T02:07:51.683Z,97861.02
2017-12-28T02:10:24.192Z,97862.23
2017-12-28T02:12:56.680Z,97871.50
2017-12-28T02:15:29.200Z,97869.03
2017-12-28T02:18:02.499Z,97871.05
2017-12-28T02:20:35.019Z,97875.45
2017-12-28T02:23:07.517Z,97873.38
2017-12-28T02:25:40.024Z,97866.16
2017-12-28T02:28:12.510Z,97874.33
2017-12-28T02:30:45.028Z,97869.38
2017-12-28T02:33:17.520Z,97869.66
2017-12-28T02:35:50.040Z,97872.91
2017-12-28T02:38:22.547Z,97861.93
2017-12-28T02:40:55.047Z,97864.84
2017-12-28T02:43:27.525Z,97861.52
2017-12-28T02:46:00.034Z,97852.97
2017-12-28T02:48:32.544Z,97857.31
2017-12-28T02:51:05.052Z,97858.77
2017-12-28T02:53:37.539Z,97853.08
2017-12-28T02:56:10.053Z,97855.83
2017-12-28T02:58:43.585Z,97853.94
2017-12-28T03:01:16.106Z,97852.35
2017-12-28T03:03:48.597Z,97855.02
2017-12-28T03:06:21.116Z,97855.19
2017-12-28T03:08:53.603Z,97854.20
2017-12-28T03:11:26.120Z,97860.41
2017-12-28T03:13:58.603Z,97861.75
2017-12-28T03:16:31.116Z,97865.50
2017-12-28T03:19:03.627Z,97876.14
2017-12-28T03:21:36.139Z,97879.14
2017-12-28T03:24:08.658Z,97881.74
2017-12-28T03:26:42.081Z,97888.23
2017-12-28T03:29:14.560Z,97880.38
2017-12-28T03:31:47.071Z,97881.44
2017-12-28T03:34:19.551Z,97897.51
2017-12-28T03:36:52.063Z,97896.28
2017-12-28T03:39:24.549Z,97897.91
2017-12-28T03:41:57.067Z,97900.89
2017-12-28T03:44:29.546Z,97894.17
2017-12-28T03:47:02.042Z,97906.14
2017-12-28T03:49:34.516Z,97908.38
2017-12-28T03:52:07.012Z,97911.22
2017-12-28T03:54:39.492Z,97924.72
2017-12-28T03:57:12.800Z,97931.69
2017-12-28T03:59:45.281Z,97933.18
2017-12-28T04:02:17.784Z,97941.14
2017-12-28T04:04:50.262Z,97941.37
2017-12-28T04:07:22.772Z,97942.31
2017-12-28T04:09:55.250Z,97949.39
2017-12-28T04:12:27.734Z,97959.36
2017-12-28T04:15:00.200Z,97961.26
2017-12-28T04:17:32.690Z,97959.41
2017-12-28T04:20:05.186Z,97971.50
2017-12-28T04:22:37.694Z,97971.50
2017-12-28T04:25:10.173Z,97962.62
2017-12-28T04:27:42.671Z,97960.94
2017-12-28T04:30:15.232Z,97959.67
2017-12-28T04:32:48.787Z,97968.13
2017-12-28T04:35:21.299Z,97979.51
2017-12-28T04:37:53.809Z,97972.53
2017-12-28T04:40:26.309Z,97967.00
2017-12-28T04:42:58.815Z,97974.11
2017-12-28T04:45:31.370Z,97975.78
2017-12-28T04:48:03.859Z,97982.26
2017-12-28T04:50:36.352Z,97983.61
2017-12-28T04:53:08.840Z,97985.40
2017-12-28T04:55:41.698Z,98005.16
2017-12-28T04:58:14.195Z,98014.34
2017-12-28T05:00:46.705Z,98016.11
2017-12-28T05:03:19.290Z,98030.61
2017-12-28T05:05:51.801Z,98037.91
2017-12-28T05:08:24.274Z,98048.28
2017-12-28T05:10:56.798Z,98056.16
2017-12-28T05:13:29.277Z,98064.91
2017-12-28T05:16:01.784Z,98057.39
2017-12-28T05:18:34.271Z,98070.08
2017-12-28T05:21:06.776Z,98064.73
2017-12-28T05:23:39.249Z,98077.59
2017-12-28T05:26:11.743Z,98078.13
2017-12-28T05:28:44.213Z,98089.70
2017-12-28T05:31:16.732Z,98108.37
2017-12-28T05:33:49.224Z,98117.62
2017-12-28T05:36:21.740Z,98124.68
2017-12-28T05:38:54.229Z,98133.66
2017-12-28T05:41:26.838Z,98129.93
2017-12-28T05:43:59.324Z,98135.06
2017-12-28T05:46:31.897Z,98135.48
2017-12-28T05:49:04.375Z,98147.25
2017-12-28T05:51:36.879Z,98146.09
2017-12-28T05:54:09.360Z,98151.67
2017-12-28T05:56:42.364Z,98161.15
2017-12-28T05:59:14.842Z,98171.31
2017-12-28T06:01:47.371Z,98182.97
2017-12-28T06:04:19.857Z,98186.30
2017-12-28T06:06:52.363Z,98193.30
2017-12-28T06:09:24.848Z,98192.05
2017-12-28T06:11:57.355Z,98197.28
2017-12-28T06:14:29.832Z,98205.88
2017-12-28T06:17:02.319Z,98202.66
2017-12-28T06:19:34.804Z,98216.77
2017-12-28T06:22:07.331Z,98210.61
2017-12-28T06:24:39.903Z,98211.20
2017-12-28T06:27:13.115Z,98218.77
2017-12-28T06:29:45.604Z,98231.93
2017-12-28T06:32:18.114Z,98236.55
2017-12-28T06:34:50.590Z,98234.80
2017-12-28T06:37:23.102Z,98245.23
2017-12-28T06:39:55.591Z,98239.30
2017-12-28T06:42:28.088Z,98250.88
2017-12-28T06:45:00.574Z,98244.91
2017-12-28T06:47:33.143Z,98255.34
2017-12-28T06:50:05.643Z,98258.33
2017-12-28T06:52:38.136Z,98260.53
2017-12-28T06:55:10.616Z,98261.30
2017-12-28T06:57:43.122Z,98267.56
2017-12-28T07:00:15.688Z,98266.42
2017-12-28T07:02:48.200Z,98269.33
2017-12-28T07:05:22.792Z,98277.33
2017-12-28T07:07:55.281Z,98285.31
2017-12-28T07:10:27.761Z,98286.37
2017-12-28T07:13:00.284Z,98294.44
2017-12-28T07:15:32.758Z,98300.98
2017-12-28T07:18:05.259Z,98310.37
2017-12-28T07:20:37.728Z,98315.31
2017-12-28T07:23:10.231Z,98316.36
2017-12-28T07:25:43.142Z,98316.70
2017-12-28T07:28:15.634Z,98316.83
2017-12-28T07:30:48.119Z,98324.44
2017-12-28T07:33:20.618Z,98329.78
2017-12-28T07:35:53.119Z,98337.17
2017-12-28T07:38:25.619Z,98331.60
2017-12-28T07:40:58.114Z,98336.76
2017-12-28T07:43:30.624Z,98340.31
2017-12-28T07:46:03.116Z,98347.45
2017-12-28T07:48:35.621Z,98352.36
2017-12-28T07:51:08.110Z,98354.17
2017-12-28T07:53:40.632Z,98336.45
2017-12-28T07:56:13.119Z,98345.41
2017-12-28T07:58:45.614Z,98347.53
2017-12-28T08:01:18.112Z,98346.97
2017-12-28T08:03:50.603Z,98353.30
2017-12-28T08:06:23.107Z,98353.79
2017-12-28T08:08:55.902Z,98353.05
2017-12-28T08:11:28.651Z,98357.06
2017-12-28T08:14:01.167Z,98360.78
2017-12-28T08:16:33.735Z,98356.41
2017-12-28T08:19:06.218Z,98361.56
2017-12-28T08:21:38.718Z,98354.86
2017-12-28T08:24:12.450Z,98363.89
2017-12-28T08:26:44.959Z,98358.50
2017-12-28T08:29:17.436Z,98358.75
2017-12-28T08:31:49.927Z,98359.61
2017-12-28T08:34:22.467Z,98363.85
2017-12-28T08:36:54.976Z,98376.87
2017-12-28T08:39:27.462Z,98377.11
2017-12-28T08:41:59.961Z,98385.78
2017-12-28T08:44:32.447Z,98390.18
2017-12-28T08:47:04.939Z,98393.41
2017-12-28T08:49:37.414Z,98397.59
2017-12-28T08:52:09.914Z,98400.99
2017-12-28T08:54:42.970Z,98401.27
2017-12-28T08:57:15.468Z,98409.67
2017-12-28T08:59:47.955Z,98410.44
2017-12-28T09:02:20.469Z,98413.92
2017-12-28T09:04:52.942Z,98419.83
2017-12-28T09:07:25.456Z,98426.17
2017-12-28T09:09:57.932Z,98435.64
2017-12-28T09:12:30.440Z,98433.92
2017-12-28T09:15:02.927Z,98446.77
2017-12-28T09:17:35.459Z,98449.27
2017-12-28T09:20:08.239Z,98462.73
2017-12-28T09:22:41.757Z,98466.46
2017-12-28T09:25:14.429Z,98470.28
2017-12-28T09:27:46.963Z,98467.78
2017-12-28T09:30:19.664Z,98471.09
2017-12-28T09:32:52.198Z,98475.33
2017-12-28T09:35:24.683Z,98478.86
2017-12-28T09:37:57.220Z,98486.39
2017-12-28T09:40:29.705Z,98482.99
2017-12-28T09:43:02.256Z,98488.01
2017-12-28T09:45:35.163Z,98483.30
2017-12-28T09:48:07.666Z,98484.00
2017-12-28T09:50:40.146Z,98491.73
2017-12-28T09:53:13.600Z,98495.98
2017-12-28T09:55:46.269Z,98503.59
2017-12-28T09:58:18.786Z,98503.77
2017-12-28T10:00:51.517Z,98499.16
2017-12-28T10:03:24.374Z,98510.41
2017-12-28T10:05:56.862Z,98512.78
2017-12-28T10:08:29.403Z,98519.09
2017-12-28T10:11:02.229Z,98524.83
2017-12-28T10:13:34.804Z,98526.17
2017-12-28T10:16:07.635Z,98527.17
2017-12-28T10:18:40.194Z,98528.69
2017-12-28T10:21:13.407Z,98529.36
2017-12-28T10:23:45.908Z,98535.08
2017-12-28T10:26:18.413Z,98530.39
2017-12-28T10:28:50.924Z,98538.53
2017-12-28T10:31:23.720Z,98536.90
2017-12-28T10:33:56.275Z,98542.45
2017-12-28T10:36:29.221Z,98541.41
2017-12-28T10:39:02.232Z,98533.21
2017-12-28T10:41:35.981Z,98531.12
2017-12-28T10:44:08.491Z,98534.56
2017-12-28T10:46:41.531Z,98542.48
2017-12-28T10:49:14.265Z,98541.74
2017-12-28T10:51:46.744Z,98542.22
2017-12-28T10:54:19.251Z,98551.09
2017-12-28T10:56:51.723Z,98544.48
2017-12-28T10:59:24.235Z,98560.68
2017-12-28T11:01:56.985Z,98560.44
2017-12-28T11:04:29.496Z,98564.21
2017-12-28T11:07:01.973Z,98572.69
2017-12-28T11:09:34.528Z,98568.34
2017-12-28T11:12:07.070Z,98573.67
2017-12-28T11:14:39.579Z,98572.00
2017-12-28T11:17:12.285Z,98580.86
2017-12-28T11:19:44.790Z,98585.38
2017-12-28T11:22:17.281Z,98586.00
2017-12-28T11:24:49.791Z,98583.19
2017-12-28T11:27:22.319Z,98592.73
2017-12-28T11:29:54.807Z,98600.19
2017-12-28T11:32:27.309Z,98596.66
2017-12-28T11:34:59.789Z,98599.99
2017-12-28T11:37:32.295Z,98594.80
2017-12-28T11:40:04.825Z,98599.95
2017-12-28T11:42:37.333Z,98588.72
2017-12-28T11:45:09.827Z,98587.63
2017-12-28T11:47:43.027Z,98593.40
2017-12-28T11:50:15.527Z,98597.22
2017-12-28T11:52:48.024Z,98598.89
2017-12-28T11:55:20.511Z,98600.58
2017-12-28T11:57:55.929Z,98602.26
2017-12-28T12:03:32.934Z,98602.75
2017-12-28T12:06:07.788Z,98603.73
2017-12-28T12:08:45.874Z,98614.52
2017-12-28T12:11:18.351Z,98615.47
2017-12-28T12:13:50.852Z,98619.11
2017-12-28T12:16:23.331Z,98621.86
2017-12-28T12:18:55.836Z,98623.25
2017-12-28T12:21:28.319Z,98626.33
2017-12-28T12:24:00.830Z,98618.34
2017-12-28T12:26:33.302Z,98619.44
2017-12-28T12:29:05.811Z,98623.08
2017-12-28T12:31:38.285Z,98620.59
2017-12-28T12:34:10.786Z,98621.73
2017-12-28T12:36:43.273Z,98622.02
2017-12-28T12:39:15.762Z,98619.39
2017-12-28T12:41:48.253Z,98622.80
2017-12-28T12:44:20.805Z,98626.41
2017-12-28T12:46:53.279Z,98622.66
2017-12-28T12:49:25.795Z,98628.32
2017-12-28T12:51:58.804Z,98619.93
2017-12-28T12:54:31.648Z,98628.22
2017-12-28T12:57:05.030Z,98624.06
2017-12-28T12:59:38.750Z,98632.69
2017-12-28T13:02:11.814Z,98632.03
2017-12-28T13:04:44.307Z,98639.13
2017-12-28T13:07:16.783Z,98646.58
2017-12-28T13:09:49.273Z,98648.97
2017-12-28T13:12:21.761Z,98647.73
2017-12-28T13:14:54.326Z,98649.38
2017-12-28T13:17:26.872Z,98637.97
2017-12-28T13:19:59.367Z,98647.45
2017-12-28T13:22:31.844Z,98650.10
2017-12-28T13:25:04.341Z,98649.02
2017-12-28T13:27:36.815Z,98654.94
2017-12-28T13:30:09.354Z,98663.87
2017-12-28T13:32:41.833Z,98668.31
2017-12-28T13:35:14.343Z,98670.70
2017-12-28T13:37:46.831Z,98675.45
2017-12-28T13:40:19.340Z,98668.88
2017-12-28T13:42:51.822Z,98681.53
2017-12-28T13:45:24.326Z,98687.89
2017-12-28T13:47:56.808Z,98683.41
2017-12-28T13:50:29.308Z,98696.06
2017-12-28T13:53:01.789Z,98688.45
2017-12-28T13:55:34.274Z,98706.53
2017-12-28T13:58:06.752Z,98704.80
2017-12-28T14:00:39.252Z,98709.48
2017-12-28T14:03:12.070Z,98718.78
2017-12-28T14:05:44.586Z,98724.69
2017-12-28T14:08:17.144Z,98725.43
2017-12-28T14:10:49.617Z,98729.50
2017-12-28T14:13:22.112Z,98738.33
2017-12-28T14:15:54.588Z,98732.72
2017-12-28T14:18:27.087Z,98728.02
2017-12-28T14:20:59.558Z,98744.25
2017-12-28T14:23:32.065Z,98732.94
2017-12-28T14:26:04.598Z,98736.60
2017-12-28T14:28:37.095Z,98741.35
2017-12-28T14:31:09.573Z,98740.73
2017-12-28T14:33:42.088Z,98753.98
2017-12-28T14:36:14.571Z,98753.59
2017-12-28T14:38:47.072Z,98759.59
2017-12-28T14:41:19.563Z,98759.01
2017-12-28T14:43:52.072Z,98767.35
2017-12-28T14:46:24.555Z,98774.04
2017-12-28T14:48:59.095Z,98778.36
2017-12-28T14:51:31.603Z,98776.52
2017-12-28T14:54:04.126Z,98788.24
2017-12-28T14:56:36.603Z,98784.81
2017-12-28T14:59:09.206Z,98790.84
2017-12-28T15:01:42.143Z,98790.85
2017-12-28T15:04:14.665Z,98795.45
2017-12-28T15:06:47.159Z,98797.71
2017-12-28T15:09:19.657Z,98796.30
2017-12-28T15:11:52.146Z,98796.02
2017-12-28T15:14:25.057Z,98791.88
2017-12-28T15:16:57.526Z,98794.42
2017-12-28T15:19:30.036Z,98793.89
2017-12-28T15:22:02.564Z,98799.08
2017-12-28T15:24:35.055Z,98792.73
2017-12-28T15:27:07.548Z,98804.13
2017-12-28T15:29:40.074Z,98809.19
2017-12-28T15:32:13.475Z,98814.31
2017-12-28T15:34:46.055Z,98807.53
2017-12-28T15:37:18.550Z,98824.59
2017-12-28T15:39:51.068Z,98812.33
2017-12-28T15:42:23.561Z,98822.95
2017-12-28T15:44:56.062Z,98824.17
2017-12-28T15:47:28.541Z,98820.18
2017-12-28T15:50:01.055Z,98822.95
2017-12-28T15:52:33.543Z,98823.85
2017-12-28T15:55:06.061Z,98824.09
2017-12-28T15:57:38.550Z,98824.39
2017-12-28T16:00:11.717Z,98820.95
2017-12-28T16:02:44.197Z,98838.21
2017-12-28T16:05:16.696Z,98831.05
2017-12-28T16:07:49.171Z,98836.98
2017-12-28T16:10:21.759Z,98841.98
2017-12-28T16:12:54.230Z,98841.05
2017-12-28T16:15:26.726Z,98846.62
2017-12-28T16:17:59.217Z,98843.84
2017-12-28T16:20:31.732Z,98848.38
2017-12-28T16:23:04.214Z,98855.86
2017-12-28T16:25:36.728Z,98857.09
2017-12-28T16:28:09.214Z,98861.89
2017-12-28T16:30:42.048Z,98867.37
2017-12-28T16:33:14.536Z,98863.82
2017-12-28T16:35:47.026Z,98875.14
2017-12-28T16:38:19.500Z,98870.75
2017-12-28T16:40:52.003Z,98878.57
2017-12-28T16:43:24.499Z,98878.64
2017-12-28T16:45:57.000Z,98883.58
2017-12-28T16:48:29.548Z,98875.77
2017-12-28T16:51:02.107Z,98884.55
2017-12-28T16:53:34.655Z,98891.48
2017-12-28T16:56:07.239Z,98887.52
2017-12-28T16:58:39.787Z,98893.96
2017-12-28T17:01:12.910Z,98905.56
2017-12-28T17:03:45.395Z,98897.70
2017-12-28T17:06:17.906Z,98895.95
2017-12-28T17:08:50.383Z,98906.11
2017-12-28T17:11:22.969Z,98914.45
2017-12-28T17:13:55.504Z,98918.95
2017-12-28T17:16:28.018Z,98927.61
2017-12-28T17:19:00.545Z,98925.00
2017-12-28T17:21:33.038Z,98931.12
2017-12-28T17:24:05.538Z,98932.23
2017-12-28T17:26:38.046Z,98939.88
2017-12-28T17:29:10.538Z,98948.17
2017-12-28T17:31:43.836Z,98950.60
2017-12-28T17:34:16.464Z,98953.78
2017-12-28T17:36:49.019Z,98960.66
2017-12-28T17:39:21.572Z,98959.42
2017-12-28T17:41:54.087Z,98964.22
2017-12-28T17:44:26.587Z,98964.41
2017-12-28T17:46:59.063Z,98966.80
2017-12-28T17:49:31.570Z,98974.23
2017-12-28T17:52:04.051Z,98969.45
2017-12-28T17:54:37.011Z,98975.05
2017-12-28T17:57:09.581Z,98978.13
2017-12-28T17:59:42.087Z,98973.05
2017-12-28T18:02:19.163Z,98978.86
2017-12-28T18:04:56.939Z,98981.81
2017-12-28T18:07:29.495Z,98987.59
2017-12-28T18:10:02.128Z,98989.95
2017-12-28T18:12:34.611Z,98994.95
2017-12-28T18:15:07.329Z,98996.34
2017-12-28T18:17:39.959Z,98997.97
2017-12-28T18:20:13.182Z,99009.23
2017-12-28T18:22:45.658Z,99008.88
2017-12-28T18:25:18.168Z,99013.94
2017-12-28T18:27:50.759Z,99012.63
2017-12-28T18:30:24.169Z,99021.64
2017-12-28T18:32:56.647Z,99018.71
2017-12-28T18:35:29.211Z,99021.52
2017-12-28T18:38:01.694Z,99030.16
2017-12-28T18:40:34.207Z,99032.19
2017-12-28T18:43:06.700Z,99037.73
2017-12-28T18:45:39.571Z,99035.03
2017-12-28T18:48:12.058Z,99045.48
2017-12-28T18:50:44.571Z,99044.52
2017-12-28T18:53:17.100Z,99053.79
2017-12-28T18:55:50.726Z,99059.83
2017-12-28T18:58:23.283Z,99050.63
2017-12-28T19:00:55.804Z,99056.47
2017-12-28T19:03:28.300Z,99071.00
2017-12-28T19:06:00.808Z,99069.89
2017-12-28T19:08:33.296Z,99066.40
2017-12-28T19:11:05.823Z,99066.09
2017-12-28T19:13:38.626Z,99066.92
2017-12-28T19:16:11.756Z,99068.94
2017-12-28T19:18:44.403Z,99070.31
2017-12-28T19:21:16.926Z,99073.39
2017-12-28T19:23:49.425Z,99080.61
2017-12-28T19:26:21.945Z,99076.13
2017-12-28T19:28:54.471Z,99073.56
2017-12-28T19:31:26.989Z,99073.20
2017-12-28T19:33:59.492Z,99075.11
2017-12-28T19:36:32.025Z,99073.31
2017-12-28T19:39:04.520Z,99088.03
2017-12-28T19:41:37.041Z,99079.95
2017-12-28T19:44:09.535Z,99082.94
2017-12-28T19:46:42.044Z,99094.81
2017-12-28T19:49:14.545Z,99091.23
2017-12-28T19:51:47.077Z,99083.45
2017-12-28T19:54:19.562Z,99092.30
2017-12-28T19:56:52.079Z,99094.31
2017-12-28T19:59:24.590Z,99100.63
2017-12-28T20:01:57.095Z,99100.52
2017-12-28T20:04:29.585Z,99108.34
2017-12-28T20:07:02.086Z,99114.29
2017-12-28T20:09:34.594Z,99117.02
2017-12-28T20:12:07.110Z,99123.84
2017-12-28T20:14:39.622Z,99119.44
2017-12-28T20:17:12.148Z,99120.82
2017-12-28T20:19:44.635Z,99112.14
2017-12-28T20:22:17.136Z,99120.56
2017-12-28T20:24:49.626Z,99114.12
2017-12-28T20:27:22.162Z,99126.91
2017-12-28T20:29:54.655Z,99130.94
2017-12-28T20:32:27.170Z,99132.69
2017-12-28T20:34:59.713Z,99126.77
2017-12-28T20:37:32.243Z,99132.98
2017-12-28T20:40:04.730Z,99131.22
2017-12-28T20:42:37.232Z,99143.22
2017-12-28T20:45:10.991Z,99138.30
2017-12-28T20:47:43.506Z,99138.61
2017-12-28T20:50:16.021Z,99140.70
2017-12-28T20:52:48.526Z,99140.56
2017-12-28T20:55:21.013Z,99139.73
2017-12-28T20:57:53.517Z,99132.17
2017-12-28T21:00:26.007Z,99137.69
2017-12-28T21:02:58.512Z,99137.78
2017-12-28T21:05:30.989Z,99146.73
2017-12-28T21:08:03.516Z,99147.42
2017-12-28T21:10:36.028Z,99140.95
2017-12-28T21:13:08.526Z,99150.81
2017-12-28T21:15:41.012Z,99152.20
2017-12-28T21:18:13.520Z,99150.88
2017-12-28T21:20:46.002Z,99156.98
2017-12-28T21:23:18.506Z,99153.94
2017-12-28T21:25:50.999Z,99149.23
2017-12-28T21:28:23.502Z,99152.55
2017-12-28T21:30:56.012Z,99155.34
2017-12-28T21:33:28.527Z,99155.50
2017-12-28T21:36:01.009Z,99155.88
2017-12-28T21:38:33.513Z,99152.65
2017-12-28T21:41:05.993Z,99162.88
2017-12-28T21:43:38.507Z,99167.00
2017-12-28T21:46:11.022Z,99175.88
2017-12-28T21:48:43.538Z,99180.94
2017-12-28T21:51:16.007Z,99184.16
2017-12-28T21:53:48.531Z,99188.02
2017-12-28T21:56:21.043Z,99192.23
2017-12-28T21:58:53.576Z,99204.77
2017-12-28T22:01:26.056Z,99200.37
2017-12-28T22:03:58.578Z,99201.95
2017-12-28T22:06:31.061Z,99214.56
2017-12-28T22:09:03.570Z,99204.59
2017-12-28T22:11:36.052Z,99222.44
2017-12-28T22:14:08.548Z,99231.21
2017-12-28T22:16:42.164Z,99235.19
2017-12-28T22:19:14.690Z,99234.97
2017-12-28T22:21:47.202Z,99246.75
2017-12-28T22:24:19.715Z,99248.39
2017-12-28T22:26:52.201Z,99247.28
2017-12-28T22:29:24.722Z,99256.91
2017-12-28T22:31:57.238Z,99258.97
2017-12-28T22:34:29.746Z,99266.91
2017-12-28T22:37:02.232Z,99268.84
2017-12-28T22:39:34.735Z,99265.16
2017-12-28T22:42:07.214Z,99271.16
2017-12-28T22:44:39.727Z,99273.89
2017-12-28T22:47:12.213Z,99270.61
2017-12-28T22:49:44.774Z,99280.09
2017-12-28T22:52:17.276Z,99274.18
2017-12-28T22:54:49.779Z,99280.17
2017-12-28T22:57:22.292Z,99281.61
2017-12-28T22:59:56.006Z,99286.50
2017-12-28T23:02:28.488Z,99285.63
2017-12-28T23:05:00.993Z,99283.61
2017-12-28T23:07:33.498Z,99291.22
2017-12-28T23:10:06.016Z,99287.26
2017-12-28T23:12:38.506Z,99289.88
2017-12-28T23:15:11.088Z,99292.99
2017-12-28T23:17:43.586Z,99296.50
2017-12-28T23:20:16.111Z,99300.98
2017-12-28T23:22:48.632Z,99301.63
2017-12-28T23:25:21.142Z,99298.81
2017-12-28T23:27:54.863Z,99310.40
2017-12-28T23:30:27.372Z,99306.57
2017-12-28T23:32:59.887Z,99307.66
2017-12-28T23:35:32.387Z,99311.44
2017-12-28T23:38:04.903Z,99315.45
2017-12-28T23:40:37.410Z,99313.13
2017-12-28T23:43:09.915Z,99319.30
2017-12-28T23:45:43.427Z,99330.03
2017-12-28T23:48:15.954Z,99312.20
2017-12-28T23:50:48.437Z,99316.02
2017-12-28T23:53:20.943Z,99314.99
2017-12-28T23:55:53.442Z,99312.27
2017-12-28T23:58:25.947Z,99313.48
